sensor_id;sensor_type;location;lat;lon;timestamp;temperature;humidity
68217;DHT22;55037;52.354;4.992;2022-09-24T00:01:36;15.20;93.30
68217;DHT22;55037;52.354;4.992;2022-09-24T00:04:09;15.20;93.40
68217;DHT22;55037;52.354;4.992;2022-09-24T00:06:47;15.20;93.70
68217;DHT22;55037;52.354;4.992;2022-09-24T00:09:17;15.20;93.40
68217;DHT22;55037;52.354;4.992;2022-09-24T00:11:45;15.20;93.40
68217;DHT22;55037;52.354;4.992;2022-09-24T00:14:13;15.30;93.40
68217;DHT22;55037;52.354;4.992;2022-09-24T00:16:41;15.20;93.70
68217;DHT22;55037;52.354;4.992;2022-09-24T00:19:11;15.30;93.40
68217;DHT22;55037;52.354;4.992;2022-09-24T00:21:40;15.30;93.50
68217;DHT22;55037;52.354;4.992;2022-09-24T00:24:11;15.30;93.40
68217;DHT22;55037;52.354;4.992;2022-09-24T00:26:59;15.30;93.40
68217;DHT22;55037;52.354;4.992;2022-09-24T00:29:26;14.00;93.00
68217;DHT22;55037;52.354;4.992;2022-09-24T00:31:54;15.30;93.30
68217;DHT22;55037;52.354;4.992;2022-09-24T00:34:21;15.30;93.30
68217;DHT22;55037;52.354;4.992;2022-09-24T00:36:48;15.30;93.50
68217;DHT22;55037;52.354;4.992;2022-09-24T00:39:16;15.30;93.00
68217;DHT22;55037;52.354;4.992;2022-09-24T00:41:44;15.30;93.30
68217;DHT22;55037;52.354;4.992;2022-09-24T00:47:39;15.30;93.30
68217;DHT22;55037;52.354;4.992;2022-09-24T00:52:43;15.30;93.40
68217;DHT22;55037;52.354;4.992;2022-09-24T00:55:13;15.40;93.10
68217;DHT22;55037;52.354;4.992;2022-09-24T00:57:41;15.30;93.00
68217;DHT22;55037;52.354;4.992;2022-09-24T01:00:10;15.30;93.40
68217;DHT22;55037;52.354;4.992;2022-09-24T01:02:38;15.30;93.30
68217;DHT22;55037;52.354;4.992;2022-09-24T01:05:07;15.30;93.20
68217;DHT22;55037;52.354;4.992;2022-09-24T01:07:36;15.30;93.30
68217;DHT22;55037;52.354;4.992;2022-09-24T01:10:03;15.20;92.90
68217;DHT22;55037;52.354;4.992;2022-09-24T01:15:37;15.30;93.30
68217;DHT22;55037;52.354;4.992;2022-09-24T01:18:19;15.40;93.20
68217;DHT22;55037;52.354;4.992;2022-09-24T01:29:38;15.10;93.20
68217;DHT22;55037;52.354;4.992;2022-09-24T01:34:48;15.10;93.30
68217;DHT22;55037;52.354;4.992;2022-09-24T01:37:18;15.20;93.30
68217;DHT22;55037;52.354;4.992;2022-09-24T01:39:48;15.10;93.30
68217;DHT22;55037;52.354;4.992;2022-09-24T01:42:19;15.10;93.90
68217;DHT22;55037;52.354;4.992;2022-09-24T01:44:48;15.10;93.50
68217;DHT22;55037;52.354;4.992;2022-09-24T01:47:25;15.10;93.50
68217;DHT22;55037;52.354;4.992;2022-09-24T01:50:02;15.10;93.40
68217;DHT22;55037;52.354;4.992;2022-09-24T01:52:34;15.10;93.50
68217;DHT22;55037;52.354;4.992;2022-09-24T01:55:05;15.10;93.50
68217;DHT22;55037;52.354;4.992;2022-09-24T01:57:41;15.00;93.60
68217;DHT22;55037;52.354;4.992;2022-09-24T02:00:12;15.10;93.60
68217;DHT22;55037;52.354;4.992;2022-09-24T02:05:32;15.20;94.00
68217;DHT22;55037;52.354;4.992;2022-09-24T02:08:08;15.10;93.40
68217;DHT22;55037;52.354;4.992;2022-09-24T02:10:42;15.10;93.40
68217;DHT22;55037;52.354;4.992;2022-09-24T02:13:14;15.10;93.50
68217;DHT22;55037;52.354;4.992;2022-09-24T02:15:45;15.10;93.50
68217;DHT22;55037;52.354;4.992;2022-09-24T02:18:16;15.10;93.10
68217;DHT22;55037;52.354;4.992;2022-09-24T02:20:46;15.10;93.50
68217;DHT22;55037;52.354;4.992;2022-09-24T02:23:16;15.10;93.30
68217;DHT22;55037;52.354;4.992;2022-09-24T02:25:54;15.10;93.30
68217;DHT22;55037;52.354;4.992;2022-09-24T02:28:24;15.00;93.40
68217;DHT22;55037;52.354;4.992;2022-09-24T02:31:13;15.00;93.40
68217;DHT22;55037;52.354;4.992;2022-09-24T02:33:45;15.00;93.60
68217;DHT22;55037;52.354;4.992;2022-09-24T02:36:32;15.00;93.60
68217;DHT22;55037;52.354;4.992;2022-09-24T02:38:59;14.90;93.10
68217;DHT22;55037;52.354;4.992;2022-09-24T02:41:27;14.90;93.50
68217;DHT22;55037;52.354;4.992;2022-09-24T02:43:56;14.90;93.70
68217;DHT22;55037;52.354;4.992;2022-09-24T02:46:23;14.90;93.60
68217;DHT22;55037;52.354;4.992;2022-09-24T02:48:53;14.90;93.70
68217;DHT22;55037;52.354;4.992;2022-09-24T02:51:20;15.30;93.80
68217;DHT22;55037;52.354;4.992;2022-09-24T02:53:50;14.90;93.80
68217;DHT22;55037;52.354;4.992;2022-09-24T02:56:17;15.00;93.80
68217;DHT22;55037;52.354;4.992;2022-09-24T02:58:44;15.00;93.20
68217;DHT22;55037;52.354;4.992;2022-09-24T03:01:11;15.00;93.50
68217;DHT22;55037;52.354;4.992;2022-09-24T03:03:38;15.00;93.50
68217;DHT22;55037;52.354;4.992;2022-09-24T03:06:06;14.90;93.60
68217;DHT22;55037;52.354;4.992;2022-09-24T03:08:33;15.00;93.70
68217;DHT22;55037;52.354;4.992;2022-09-24T03:11:01;15.00;93.70
68217;DHT22;55037;52.354;4.992;2022-09-24T03:13:28;15.00;93.60
68217;DHT22;55037;52.354;4.992;2022-09-24T03:15:55;15.00;93.60
68217;DHT22;55037;52.354;4.992;2022-09-24T03:18:22;15.00;93.60
68217;DHT22;55037;52.354;4.992;2022-09-24T03:21:05;15.00;93.80
68217;DHT22;55037;52.354;4.992;2022-09-24T03:23:32;15.00;93.90
68217;DHT22;55037;52.354;4.992;2022-09-24T03:25:59;15.00;93.80
68217;DHT22;55037;52.354;4.992;2022-09-24T03:28:27;14.90;93.10
68217;DHT22;55037;52.354;4.992;2022-09-24T03:30:54;14.90;93.50
68217;DHT22;55037;52.354;4.992;2022-09-24T03:33:36;14.90;93.60
68217;DHT22;55037;52.354;4.992;2022-09-24T03:38:32;14.90;93.40
68217;DHT22;55037;52.354;4.992;2022-09-24T03:41:00;14.80;93.70
68217;DHT22;55037;52.354;4.992;2022-09-24T03:43:28;14.90;93.80
68217;DHT22;55037;52.354;4.992;2022-09-24T03:45:56;14.90;93.70
68217;DHT22;55037;52.354;4.992;2022-09-24T03:48:24;14.80;93.30
68217;DHT22;55037;52.354;4.992;2022-09-24T03:50:52;14.90;93.60
68217;DHT22;55037;52.354;4.992;2022-09-24T03:53:19;14.80;93.60
68217;DHT22;55037;52.354;4.992;2022-09-24T03:55:52;14.80;93.70
68217;DHT22;55037;52.354;4.992;2022-09-24T03:58:19;14.80;93.70
68217;DHT22;55037;52.354;4.992;2022-09-24T04:00:47;14.80;93.70
68217;DHT22;55037;52.354;4.992;2022-09-24T04:03:14;14.80;93.80
68217;DHT22;55037;52.354;4.992;2022-09-24T04:05:41;14.80;94.00
68217;DHT22;55037;52.354;4.992;2022-09-24T04:08:08;14.90;94.00
68217;DHT22;55037;52.354;4.992;2022-09-24T04:10:36;14.90;93.90
68217;DHT22;55037;52.354;4.992;2022-09-24T04:13:03;15.00;94.00
68217;DHT22;55037;52.354;4.992;2022-09-24T04:15:30;15.00;93.70
68217;DHT22;55037;52.354;4.992;2022-09-24T04:17:59;15.00;93.60
68217;DHT22;55037;52.354;4.992;2022-09-24T04:20:27;15.00;93.50
68217;DHT22;55037;52.354;4.992;2022-09-24T04:22:56;15.00;93.60
68217;DHT22;55037;52.354;4.992;2022-09-24T04:25:26;15.00;93.90
68217;DHT22;55037;52.354;4.992;2022-09-24T04:27:58;15.10;93.40
68217;DHT22;55037;52.354;4.992;2022-09-24T04:30:27;15.10;93.40
68217;DHT22;55037;52.354;4.992;2022-09-24T04:32:54;15.00;93.40
68217;DHT22;55037;52.354;4.992;2022-09-24T04:35:22;15.10;93.30
68217;DHT22;55037;52.354;4.992;2022-09-24T04:37:50;15.10;93.20
68217;DHT22;55037;52.354;4.992;2022-09-24T04:40:17;15.10;93.20
68217;DHT22;55037;52.354;4.992;2022-09-24T04:42:44;15.10;93.40
68217;DHT22;55037;52.354;4.992;2022-09-24T04:45:15;15.20;93.30
68217;DHT22;55037;52.354;4.992;2022-09-24T04:47:46;15.20;93.30
68217;DHT22;55037;52.354;4.992;2022-09-24T04:50:24;15.30;93.00
68217;DHT22;55037;52.354;4.992;2022-09-24T04:52:52;15.30;93.00
68217;DHT22;55037;52.354;4.992;2022-09-24T04:55:21;15.30;93.10
68217;DHT22;55037;52.354;4.992;2022-09-24T04:57:49;15.40;92.80
68217;DHT22;55037;52.354;4.992;2022-09-24T05:00:19;15.40;92.70
68217;DHT22;55037;52.354;4.992;2022-09-24T05:02:47;15.40;92.60
68217;DHT22;55037;52.354;4.992;2022-09-24T05:05:21;15.40;92.70
68217;DHT22;55037;52.354;4.992;2022-09-24T05:07:48;15.30;92.50
68217;DHT22;55037;52.354;4.992;2022-09-24T05:10:17;15.30;92.80
68217;DHT22;55037;52.354;4.992;2022-09-24T05:12:44;15.40;92.90
68217;DHT22;55037;52.354;4.992;2022-09-24T05:15:11;15.40;93.00
68217;DHT22;55037;52.354;4.992;2022-09-24T05:17:39;15.40;93.00
68217;DHT22;55037;52.354;4.992;2022-09-24T05:20:07;15.30;93.10
68217;DHT22;55037;52.354;4.992;2022-09-24T05:22:46;15.40;93.10
68217;DHT22;55037;52.354;4.992;2022-09-24T05:25:17;15.30;93.10
68217;DHT22;55037;52.354;4.992;2022-09-24T05:27:52;15.30;93.20
68217;DHT22;55037;52.354;4.992;2022-09-24T05:30:22;15.40;93.30
68217;DHT22;55037;52.354;4.992;2022-09-24T05:32:49;15.40;93.30
68217;DHT22;55037;52.354;4.992;2022-09-24T05:35:21;15.40;93.30
68217;DHT22;55037;52.354;4.992;2022-09-24T05:37:49;15.40;93.40
68217;DHT22;55037;52.354;4.992;2022-09-24T05:40:19;15.40;93.40
68217;DHT22;55037;52.354;4.992;2022-09-24T05:43:05;15.40;93.30
68217;DHT22;55037;52.354;4.992;2022-09-24T05:45:32;15.50;93.20
68217;DHT22;55037;52.354;4.992;2022-09-24T05:47:59;15.50;93.20
68217;DHT22;55037;52.354;4.992;2022-09-24T05:50:27;15.50;93.10
68217;DHT22;55037;52.354;4.992;2022-09-24T05:52:54;15.60;93.00
68217;DHT22;55037;52.354;4.992;2022-09-24T05:55:22;15.60;93.00
68217;DHT22;55037;52.354;4.992;2022-09-24T05:57:49;15.60;93.00
68217;DHT22;55037;52.354;4.992;2022-09-24T06:00:16;15.60;92.90
68217;DHT22;55037;52.354;4.992;2022-09-24T06:02:43;15.70;92.80
68217;DHT22;55037;52.354;4.992;2022-09-24T06:05:11;15.70;92.80
68217;DHT22;55037;52.354;4.992;2022-09-24T06:07:38;15.70;92.30
68217;DHT22;55037;52.354;4.992;2022-09-24T06:10:06;15.70;92.70
68217;DHT22;55037;52.354;4.992;2022-09-24T06:12:33;15.70;92.70
68217;DHT22;55037;52.354;4.992;2022-09-24T06:15:01;15.80;92.60
68217;DHT22;55037;52.354;4.992;2022-09-24T06:17:28;15.80;92.40
68217;DHT22;55037;52.354;4.992;2022-09-24T06:19:57;15.80;92.30
68217;DHT22;55037;52.354;4.992;2022-09-24T06:22:24;15.70;92.20
68217;DHT22;55037;52.354;4.992;2022-09-24T06:24:55;15.60;92.20
68217;DHT22;55037;52.354;4.992;2022-09-24T06:27:22;15.60;92.00
68217;DHT22;55037;52.354;4.992;2022-09-24T06:29:49;15.60;91.70
68217;DHT22;55037;52.354;4.992;2022-09-24T06:32:16;15.50;92.10
68217;DHT22;55037;52.354;4.992;2022-09-24T06:34:45;15.50;92.20
68217;DHT22;55037;52.354;4.992;2022-09-24T06:37:13;15.50;92.20
68217;DHT22;55037;52.354;4.992;2022-09-24T06:39:40;15.50;91.80
68217;DHT22;55037;52.354;4.992;2022-09-24T06:42:08;15.50;92.00
68217;DHT22;55037;52.354;4.992;2022-09-24T06:44:36;15.50;91.90
68217;DHT22;55037;52.354;4.992;2022-09-24T06:47:03;15.50;91.80
68217;DHT22;55037;52.354;4.992;2022-09-24T06:49:30;15.50;91.50
68217;DHT22;55037;52.354;4.992;2022-09-24T06:52:01;15.50;91.70
68217;DHT22;55037;52.354;4.992;2022-09-24T06:54:28;15.50;91.60
68217;DHT22;55037;52.354;4.992;2022-09-24T06:56:55;15.50;91.60
68217;DHT22;55037;52.354;4.992;2022-09-24T06:59:23;15.50;91.40
68217;DHT22;55037;52.354;4.992;2022-09-24T07:01:50;14.20;91.10
68217;DHT22;55037;52.354;4.992;2022-09-24T07:04:17;15.50;91.40
68217;DHT22;55037;52.354;4.992;2022-09-24T07:06:45;15.50;91.40
68217;DHT22;55037;52.354;4.992;2022-09-24T07:09:31;15.50;91.20
68217;DHT22;55037;52.354;4.992;2022-09-24T07:11:58;15.50;91.00
68217;DHT22;55037;52.354;4.992;2022-09-24T07:14:29;15.50;90.90
68217;DHT22;55037;52.354;4.992;2022-09-24T07:16:56;15.50;90.70
68217;DHT22;55037;52.354;4.992;2022-09-24T07:19:23;15.50;90.60
68217;DHT22;55037;52.354;4.992;2022-09-24T07:21:50;15.50;90.50
68217;DHT22;55037;52.354;4.992;2022-09-24T07:24:18;15.50;90.40
68217;DHT22;55037;52.354;4.992;2022-09-24T07:26:45;15.40;90.40
68217;DHT22;55037;52.354;4.992;2022-09-24T07:29:12;15.40;90.50
68217;DHT22;55037;52.354;4.992;2022-09-24T07:31:40;15.50;90.30
68217;DHT22;55037;52.354;4.992;2022-09-24T07:34:07;15.50;90.20
68217;DHT22;55037;52.354;4.992;2022-09-24T07:36:35;15.50;90.10
68217;DHT22;55037;52.354;4.992;2022-09-24T07:39:02;15.50;90.20
68217;DHT22;55037;52.354;4.992;2022-09-24T07:41:30;15.50;90.00
68217;DHT22;55037;52.354;4.992;2022-09-24T07:43:57;15.40;90.10
68217;DHT22;55037;52.354;4.992;2022-09-24T07:46:25;15.50;90.10
68217;DHT22;55037;52.354;4.992;2022-09-24T07:48:53;15.50;90.00
68217;DHT22;55037;52.354;4.992;2022-09-24T07:51:23;15.60;90.00
68217;DHT22;55037;52.354;4.992;2022-09-24T07:53:57;15.70;89.70
68217;DHT22;55037;52.354;4.992;2022-09-24T07:56:24;15.70;89.60
68217;DHT22;55037;52.354;4.992;2022-09-24T07:58:52;15.80;89.10
68217;DHT22;55037;52.354;4.992;2022-09-24T08:01:19;15.90;88.70
68217;DHT22;55037;52.354;4.992;2022-09-24T08:03:47;16.00;88.50
68217;DHT22;55037;52.354;4.992;2022-09-24T08:06:14;16.00;88.10
68217;DHT22;55037;52.354;4.992;2022-09-24T08:08:41;16.10;87.90
68217;DHT22;55037;52.354;4.992;2022-09-24T08:11:11;16.10;87.80
68217;DHT22;55037;52.354;4.992;2022-09-24T08:13:43;16.20;87.90
68217;DHT22;55037;52.354;4.992;2022-09-24T08:16:11;16.30;87.50
68217;DHT22;55037;52.354;4.992;2022-09-24T08:18:41;15.40;86.70
68217;DHT22;55037;52.354;4.992;2022-09-24T08:21:10;16.50;87.50
68217;DHT22;55037;52.354;4.992;2022-09-24T08:23:38;16.50;86.50
68217;DHT22;55037;52.354;4.992;2022-09-24T08:26:09;16.60;85.20
68217;DHT22;55037;52.354;4.992;2022-09-24T08:28:37;16.60;84.70
68217;DHT22;55037;52.354;4.992;2022-09-24T08:31:08;16.60;84.50
68217;DHT22;55037;52.354;4.992;2022-09-24T08:33:37;16.60;84.30
68217;DHT22;55037;52.354;4.992;2022-09-24T08:36:07;16.60;84.20
68217;DHT22;55037;52.354;4.992;2022-09-24T08:38:35;16.50;83.50
68217;DHT22;55037;52.354;4.992;2022-09-24T08:43:47;16.60;83.90
68217;DHT22;55037;52.354;4.992;2022-09-24T08:49:46;16.50;83.50
68217;DHT22;55037;52.354;4.992;2022-09-24T08:52:29;16.30;84.30
68217;DHT22;55037;52.354;4.992;2022-09-24T08:55:03;16.20;84.60
68217;DHT22;55037;52.354;4.992;2022-09-24T08:57:48;16.10;85.20
68217;DHT22;55037;52.354;4.992;2022-09-24T09:00:16;16.00;85.30
68217;DHT22;55037;52.354;4.992;2022-09-24T09:03:00;16.00;86.10
68217;DHT22;55037;52.354;4.992;2022-09-24T09:11:35;16.00;86.30
68217;DHT22;55037;52.354;4.992;2022-09-24T09:14:22;15.90;87.10
68217;DHT22;55037;52.354;4.992;2022-09-24T09:17:04;15.90;86.00
68217;DHT22;55037;52.354;4.992;2022-09-24T09:19:33;16.00;85.70
68217;DHT22;55037;52.354;4.992;2022-09-24T09:22:13;16.00;85.30
68217;DHT22;55037;52.354;4.992;2022-09-24T09:24:45;16.00;85.30
68217;DHT22;55037;52.354;4.992;2022-09-24T09:27:16;16.10;85.00
68217;DHT22;55037;52.354;4.992;2022-09-24T09:29:50;16.20;84.60
68217;DHT22;55037;52.354;4.992;2022-09-24T09:32:36;16.30;84.00
68217;DHT22;55037;52.354;4.992;2022-09-24T09:37:56;16.30;83.50
68217;DHT22;55037;52.354;4.992;2022-09-24T09:40:41;16.30;83.50
68217;DHT22;55037;52.354;4.992;2022-09-24T09:43:13;16.40;83.00
68217;DHT22;55037;52.354;4.992;2022-09-24T09:48:54;16.40;82.50
68217;DHT22;55037;52.354;4.992;2022-09-24T09:51:25;16.50;81.90
68217;DHT22;55037;52.354;4.992;2022-09-24T09:53:57;16.50;81.60
68217;DHT22;55037;52.354;4.992;2022-09-24T09:56:27;16.50;81.30
68217;DHT22;55037;52.354;4.992;2022-09-24T10:01:41;16.60;81.50
68217;DHT22;55037;52.354;4.992;2022-09-24T10:04:35;16.60;81.20
68217;DHT22;55037;52.354;4.992;2022-09-24T10:07:08;16.60;81.10
68217;DHT22;55037;52.354;4.992;2022-09-24T10:09:36;16.60;81.10
68217;DHT22;55037;52.354;4.992;2022-09-24T10:14:40;16.60;80.80
68217;DHT22;55037;52.354;4.992;2022-09-24T10:17:17;16.60;80.90
68217;DHT22;55037;52.354;4.992;2022-09-24T10:19:45;16.70;80.70
68217;DHT22;55037;52.354;4.992;2022-09-24T10:22:23;16.70;80.70
68217;DHT22;55037;52.354;4.992;2022-09-24T10:24:52;16.80;80.50
68217;DHT22;55037;52.354;4.992;2022-09-24T10:27:31;16.80;80.10
68217;DHT22;55037;52.354;4.992;2022-09-24T10:30:03;16.80;80.30
68217;DHT22;55037;52.354;4.992;2022-09-24T10:32:57;16.80;80.00
68217;DHT22;55037;52.354;4.992;2022-09-24T10:35:35;16.80;79.60
68217;DHT22;55037;52.354;4.992;2022-09-24T10:38:21;16.90;79.60
68217;DHT22;55037;52.354;4.992;2022-09-24T10:40:49;16.90;79.30
68217;DHT22;55037;52.354;4.992;2022-09-24T10:43:20;17.00;79.30
68217;DHT22;55037;52.354;4.992;2022-09-24T10:46:13;17.00;79.10
68217;DHT22;55037;52.354;4.992;2022-09-24T10:52:22;17.10;78.10
68217;DHT22;55037;52.354;4.992;2022-09-24T10:54:40;17.10;77.90
68217;DHT22;55037;52.354;4.992;2022-09-24T10:57:36;17.10;77.50
68217;DHT22;55037;52.354;4.992;2022-09-24T11:00:22;17.10;76.90
68217;DHT22;55037;52.354;4.992;2022-09-24T11:05:34;17.10;77.00
68217;DHT22;55037;52.354;4.992;2022-09-24T11:08:35;17.20;76.70
68217;DHT22;55037;52.354;4.992;2022-09-24T11:11:40;17.30;76.30
68217;DHT22;55037;52.354;4.992;2022-09-24T11:23:01;17.60;74.40
68217;DHT22;55037;52.354;4.992;2022-09-24T11:25:46;17.70;73.80
68217;DHT22;55037;52.354;4.992;2022-09-24T11:48:49;18.50;70.30
68217;DHT22;55037;52.354;4.992;2022-09-24T11:57:43;18.50;69.30
68217;DHT22;55037;52.354;4.992;2022-09-24T12:00:18;18.50;69.20
68217;DHT22;55037;52.354;4.992;2022-09-24T12:03:15;18.60;69.30
68217;DHT22;55037;52.354;4.992;2022-09-24T12:06:05;18.70;68.80
68217;DHT22;55037;52.354;4.992;2022-09-24T12:11:48;19.00;67.10
68217;DHT22;55037;52.354;4.992;2022-09-24T12:14:23;19.00;67.40
68217;DHT22;55037;52.354;4.992;2022-09-24T12:16:55;19.10;65.90
68217;DHT22;55037;52.354;4.992;2022-09-24T12:19:29;19.10;65.00
68217;DHT22;55037;52.354;4.992;2022-09-24T12:22:01;19.20;64.60
68217;DHT22;55037;52.354;4.992;2022-09-24T12:25:14;19.40;63.70
68217;DHT22;55037;52.354;4.992;2022-09-24T12:27:35;19.50;63.50
68217;DHT22;55037;52.354;4.992;2022-09-24T12:30:22;19.60;63.30
68217;DHT22;55037;52.354;4.992;2022-09-24T12:33:34;19.80;62.10
68217;DHT22;55037;52.354;4.992;2022-09-24T12:38:44;20.20;62.20
68217;DHT22;55037;52.354;4.992;2022-09-24T12:42:07;20.40;61.60
68217;DHT22;55037;52.354;4.992;2022-09-24T12:44:41;20.70;61.50
68217;DHT22;55037;52.354;4.992;2022-09-24T12:47:31;20.90;60.20
68217;DHT22;55037;52.354;4.992;2022-09-24T12:50:02;21.00;59.10
68217;DHT22;55037;52.354;4.992;2022-09-24T12:52:39;21.10;57.60
68217;DHT22;55037;52.354;4.992;2022-09-24T12:55:27;21.20;56.90
68217;DHT22;55037;52.354;4.992;2022-09-24T12:57:59;21.20;55.30
68217;DHT22;55037;52.354;4.992;2022-09-24T13:00:43;21.30;54.80
68217;DHT22;55037;52.354;4.992;2022-09-24T13:03:38;21.30;54.40
68217;DHT22;55037;52.354;4.992;2022-09-24T13:06:29;21.30;53.90
68217;DHT22;55037;52.354;4.992;2022-09-24T13:08:58;21.30;54.10
68217;DHT22;55037;52.354;4.992;2022-09-24T13:11:29;21.30;53.20
68217;DHT22;55037;52.354;4.992;2022-09-24T13:16:36;21.40;53.40
68217;DHT22;55037;52.354;4.992;2022-09-24T13:19:32;21.50;52.90
68217;DHT22;55037;52.354;4.992;2022-09-24T13:22:00;21.70;52.50
68217;DHT22;55037;52.354;4.992;2022-09-24T13:24:31;21.80;51.30
68217;DHT22;55037;52.354;4.992;2022-09-24T13:27:32;21.90;51.30
68217;DHT22;55037;52.354;4.992;2022-09-24T13:30:15;21.90;50.50
68217;DHT22;55037;52.354;4.992;2022-09-24T13:35:24;21.80;51.30
68217;DHT22;55037;52.354;4.992;2022-09-24T13:38:06;22.10;50.70
68217;DHT22;55037;52.354;4.992;2022-09-24T13:40:37;22.40;50.60
68217;DHT22;55037;52.354;4.992;2022-09-24T13:43:15;22.80;49.10
68217;DHT22;55037;52.354;4.992;2022-09-24T13:45:43;23.30;47.10
68217;DHT22;55037;52.354;4.992;2022-09-24T13:48:29;23.50;46.70
68217;DHT22;55037;52.354;4.992;2022-09-24T13:51:00;23.60;45.70
68217;DHT22;55037;52.354;4.992;2022-09-24T13:54:01;23.70;44.50
68217;DHT22;55037;52.354;4.992;2022-09-24T13:56:30;23.90;44.10
68217;DHT22;55037;52.354;4.992;2022-09-24T13:59:09;25.10;43.60
68217;DHT22;55037;52.354;4.992;2022-09-24T14:01:41;27.60;39.50
68217;DHT22;55037;52.354;4.992;2022-09-24T14:04:19;30.00;35.80
68217;DHT22;55037;52.354;4.992;2022-09-24T14:06:53;32.10;31.20
68217;DHT22;55037;52.354;4.992;2022-09-24T14:11:56;33.50;27.60
68217;DHT22;55037;52.354;4.992;2022-09-24T14:14:29;33.10;26.60
68217;DHT22;55037;52.354;4.992;2022-09-24T14:17:07;31.40;27.70
68217;DHT22;55037;52.354;4.992;2022-09-24T14:19:37;29.30;30.00
68217;DHT22;55037;52.354;4.992;2022-09-24T14:22:14;27.80;32.90
68217;DHT22;55037;52.354;4.992;2022-09-24T14:25:02;27.20;34.40
68217;DHT22;55037;52.354;4.992;2022-09-24T14:27:31;26.40;35.60
68217;DHT22;55037;52.354;4.992;2022-09-24T14:30:02;25.40;36.90
68217;DHT22;55037;52.354;4.992;2022-09-24T14:32:33;24.70;38.60
68217;DHT22;55037;52.354;4.992;2022-09-24T14:35:16;24.20;40.40
68217;DHT22;55037;52.354;4.992;2022-09-24T14:37:53;23.80;41.20
68217;DHT22;55037;52.354;4.992;2022-09-24T14:40:24;23.50;42.40
68217;DHT22;55037;52.354;4.992;2022-09-24T14:42:59;23.20;42.40
68217;DHT22;55037;52.354;4.992;2022-09-24T14:45:32;22.90;43.00
68217;DHT22;55037;52.354;4.992;2022-09-24T14:50:51;22.50;43.40
68217;DHT22;55037;52.354;4.992;2022-09-24T14:53:31;22.50;44.40
68217;DHT22;55037;52.354;4.992;2022-09-24T14:56:27;22.70;44.20
68217;DHT22;55037;52.354;4.992;2022-09-24T14:58:55;23.40;43.40
68217;DHT22;55037;52.354;4.992;2022-09-24T15:01:29;23.60;42.20
68217;DHT22;55037;52.354;4.992;2022-09-24T15:04:03;23.40;41.90
68217;DHT22;55037;52.354;4.992;2022-09-24T15:06:34;23.10;42.50
68217;DHT22;55037;52.354;4.992;2022-09-24T15:09:39;23.00;43.60
68217;DHT22;55037;52.354;4.992;2022-09-24T15:12:08;22.90;43.30
68217;DHT22;55037;52.354;4.992;2022-09-24T15:14:36;23.10;43.60
68217;DHT22;55037;52.354;4.992;2022-09-24T15:17:21;23.40;42.40
68217;DHT22;55037;52.354;4.992;2022-09-24T15:19:48;23.40;41.60
68217;DHT22;55037;52.354;4.992;2022-09-24T15:22:20;23.10;41.50
68217;DHT22;55037;52.354;4.992;2022-09-24T15:24:48;22.60;42.70
68217;DHT22;55037;52.354;4.992;2022-09-24T15:27:25;22.40;43.80
68217;DHT22;55037;52.354;4.992;2022-09-24T15:29:56;22.00;43.70
68217;DHT22;55037;52.354;4.992;2022-09-24T15:32:28;21.80;44.00
68217;DHT22;55037;52.354;4.992;2022-09-24T15:34:56;21.60;45.10
68217;DHT22;55037;52.354;4.992;2022-09-24T15:37:25;21.80;46.10
68217;DHT22;55037;52.354;4.992;2022-09-24T15:39:56;22.20;44.90
68217;DHT22;55037;52.354;4.992;2022-09-24T15:42:25;22.30;44.30
68217;DHT22;55037;52.354;4.992;2022-09-24T15:44:53;22.20;44.80
68217;DHT22;55037;52.354;4.992;2022-09-24T15:47:20;22.00;45.50
68217;DHT22;55037;52.354;4.992;2022-09-24T15:49:49;21.70;46.40
68217;DHT22;55037;52.354;4.992;2022-09-24T15:52:19;21.50;47.30
68217;DHT22;55037;52.354;4.992;2022-09-24T15:54:53;21.30;47.80
68217;DHT22;55037;52.354;4.992;2022-09-24T15:57:21;21.10;48.70
68217;DHT22;55037;52.354;4.992;2022-09-24T15:59:49;20.90;49.70
68217;DHT22;55037;52.354;4.992;2022-09-24T16:02:22;20.90;50.60
68217;DHT22;55037;52.354;4.992;2022-09-24T16:04:51;21.10;49.60
68217;DHT22;55037;52.354;4.992;2022-09-24T16:07:20;21.00;49.60
68217;DHT22;55037;52.354;4.992;2022-09-24T16:09:47;20.80;50.20
68217;DHT22;55037;52.354;4.992;2022-09-24T16:12:16;20.60;50.90
68217;DHT22;55037;52.354;4.992;2022-09-24T16:14:44;20.60;51.50
68217;DHT22;55037;52.354;4.992;2022-09-24T16:17:11;20.90;50.50
68217;DHT22;55037;52.354;4.992;2022-09-24T16:19:38;21.60;49.10
68217;DHT22;55037;52.354;4.992;2022-09-24T16:22:06;22.10;46.70
68217;DHT22;55037;52.354;4.992;2022-09-24T16:24:33;22.30;44.80
68217;DHT22;55037;52.354;4.992;2022-09-24T16:27:01;22.10;45.00
68217;DHT22;55037;52.354;4.992;2022-09-24T16:29:28;22.00;46.40
68217;DHT22;55037;52.354;4.992;2022-09-24T16:31:55;22.20;45.70
68217;DHT22;55037;52.354;4.992;2022-09-24T16:34:22;22.40;44.30
68217;DHT22;55037;52.354;4.992;2022-09-24T16:36:50;22.30;44.10
68217;DHT22;55037;52.354;4.992;2022-09-24T16:39:17;22.10;44.50
68217;DHT22;55037;52.354;4.992;2022-09-24T16:41:49;21.80;46.00
68217;DHT22;55037;52.354;4.992;2022-09-24T16:44:17;21.70;46.50
68217;DHT22;55037;52.354;4.992;2022-09-24T16:46:44;21.70;46.50
68217;DHT22;55037;52.354;4.992;2022-09-24T16:49:12;21.60;46.50
68217;DHT22;55037;52.354;4.992;2022-09-24T16:51:39;21.50;46.20
68217;DHT22;55037;52.354;4.992;2022-09-24T16:54:07;21.50;46.20
68217;DHT22;55037;52.354;4.992;2022-09-24T16:56:34;21.30;46.60
68217;DHT22;55037;52.354;4.992;2022-09-24T16:59:01;21.20;47.00
68217;DHT22;55037;52.354;4.992;2022-09-24T17:01:28;21.10;47.30
68217;DHT22;55037;52.354;4.992;2022-09-24T17:03:57;20.90;47.30
68217;DHT22;55037;52.354;4.992;2022-09-24T17:06:29;20.60;47.90
68217;DHT22;55037;52.354;4.992;2022-09-24T17:08:57;20.30;48.20
68217;DHT22;55037;52.354;4.992;2022-09-24T17:11:43;20.10;49.70
68217;DHT22;55037;52.354;4.992;2022-09-24T17:14:13;19.80;51.10
68217;DHT22;55037;52.354;4.992;2022-09-24T17:16:41;19.60;51.90
68217;DHT22;55037;52.354;4.992;2022-09-24T17:19:09;19.00;52.90
68217;DHT22;55037;52.354;4.992;2022-09-24T17:21:39;18.70;55.10
68217;DHT22;55037;52.354;4.992;2022-09-24T17:24:08;18.40;56.80
68217;DHT22;55037;52.354;4.992;2022-09-24T17:26:36;18.10;58.00
68217;DHT22;55037;52.354;4.992;2022-09-24T17:29:04;17.70;59.50
68217;DHT22;55037;52.354;4.992;2022-09-24T17:31:32;17.40;60.60
68217;DHT22;55037;52.354;4.992;2022-09-24T17:34:04;17.20;61.80
68217;DHT22;55037;52.354;4.992;2022-09-24T17:36:33;17.00;62.90
68217;DHT22;55037;52.354;4.992;2022-09-24T17:39:01;16.70;63.50
68217;DHT22;55037;52.354;4.992;2022-09-24T17:41:29;16.50;64.70
68217;DHT22;55037;52.354;4.992;2022-09-24T17:43:58;16.40;65.80
68217;DHT22;55037;52.354;4.992;2022-09-24T17:46:30;16.20;66.60
68217;DHT22;55037;52.354;4.992;2022-09-24T17:48:59;16.00;67.20